Branon, North Carolina
Current Conditions -  °F | °C
As of 2:18 PM on Friday 31 Oct 2014 (Local Time) from KINT Reporting Station
Broken Clouds Broken Clouds  
Wind Chill: 54°   Ceiling: 4700
Heat Index: 54°   Visibility: 10mi
Dew Point: 38°   Wind: 0mph
Humidity: 55%   Direction: NA
Pressure: 29.87"   Gusts: NA
Location:  36.1267°N, 80.6582°W
Report Text: KINT 311818Z 00000KT 10SM SCT027 SCT036 BKN047 12/03 A2987 RMK AO2 T01220033
Loading
Personal Weather Stations






























Interactive Weather Map
Tropical Storm Tracking
New forecast layout! Learn more

10-Day Weather Forecast

Advertisements
Track Severe Weather on mobile